<?xml version="1.0" encoding="UTF-8" standalone="no" ?>
<gpx xmlns="http://www.topografix.com/GPX/1/1" xmlns:xsi="http://www.w3.org/2001/XMLSchema-instance" xsi:schemaLocation="http://www.topografix.com/GPX/1/1 http://www.topografix.com/GPX/1/1/gpx.xsd" version="1.1" creator="VisuGPX - https://www.visugpx.com">
  <metadata>
    <name>parcours 13</name>
    <desc><![CDATA[l'entrainement continu]]></desc>
  </metadata>
  <trk>
    <name><![CDATA[ACTIVE LOG142131]]></name>
    <trkseg>
      <trkpt lat="48.55794" lon="-4.72038">
        <ele>15.915</ele>
        <time>2010-08-16T12:21:31Z</time>
      </trkpt>
      <trkpt lat="48.55796" lon="-4.72039">
        <ele>15.809</ele>
        <time>2010-08-16T12:21:32Z</time>
      </trkpt>
      <trkpt lat="48.55798" lon="-4.72041">
        <ele>15.411</ele>
        <time>2010-08-16T12:22:11Z</time>
      </trkpt>
      <trkpt lat="48.55791" lon="-4.72043">
        <ele>15.448</ele>
        <time>2010-08-16T12:22:16Z</time>
      </trkpt>
      <trkpt lat="48.55783" lon="-4.72052">
        <ele>16.145</ele>
        <time>2010-08-16T12:22:21Z</time>
      </trkpt>
      <trkpt lat="48.55745" lon="-4.72021">
        <ele>17.46</ele>
        <time>2010-08-16T12:22:33Z</time>
      </trkpt>
      <trkpt lat="48.55741" lon="-4.72021">
        <ele>17.77</ele>
        <time>2010-08-16T12:22:34Z</time>
      </trkpt>
      <trkpt lat="48.55725" lon="-4.72013">
        <ele>18.019</ele>
        <time>2010-08-16T12:22:38Z</time>
      </trkpt>
      <trkpt lat="48.55712" lon="-4.72006">
        <ele>16.64</ele>
        <time>2010-08-16T12:22:41Z</time>
      </trkpt>
      <trkpt lat="48.55632" lon="-4.71964">
        <ele>15.719</ele>
        <time>2010-08-16T12:22:57Z</time>
      </trkpt>
      <trkpt lat="48.55609" lon="-4.71965">
        <ele>16.165</ele>
        <time>2010-08-16T12:23:01Z</time>
      </trkpt>
      <trkpt lat="48.55601" lon="-4.71972">
        <ele>16.347</ele>
        <time>2010-08-16T12:23:03Z</time>
      </trkpt>
      <trkpt lat="48.55594" lon="-4.71977">
        <ele>17.874</ele>
        <time>2010-08-16T12:23:05Z</time>
      </trkpt>
      <trkpt lat="48.55574" lon="-4.7196">
        <ele>18.598</ele>
        <time>2010-08-16T12:23:12Z</time>
      </trkpt>
      <trkpt lat="48.55574" lon="-4.71953">
        <ele>17.705</ele>
        <time>2010-08-16T12:23:13Z</time>
      </trkpt>
      <trkpt lat="48.55569" lon="-4.71916">
        <ele>16.092</ele>
        <time>2010-08-16T12:23:17Z</time>
      </trkpt>
      <trkpt lat="48.55563" lon="-4.71886">
        <ele>14.86</ele>
        <time>2010-08-16T12:23:20Z</time>
      </trkpt>
      <trkpt lat="48.55554" lon="-4.71867">
        <ele>13.699</ele>
        <time>2010-08-16T12:23:22Z</time>
      </trkpt>
      <trkpt lat="48.55534" lon="-4.71827">
        <ele>11.618</ele>
        <time>2010-08-16T12:23:26Z</time>
      </trkpt>
      <trkpt lat="48.55519" lon="-4.71725">
        <ele>9.279</ele>
        <time>2010-08-16T12:23:34Z</time>
      </trkpt>
      <trkpt lat="48.55519" lon="-4.71666">
        <ele>6.74</ele>
        <time>2010-08-16T12:23:38Z</time>
      </trkpt>
      <trkpt lat="48.55517" lon="-4.71638">
        <ele>6.647</ele>
        <time>2010-08-16T12:23:40Z</time>
      </trkpt>
      <trkpt lat="48.55511" lon="-4.71601">
        <ele>8.281</ele>
        <time>2010-08-16T12:23:43Z</time>
      </trkpt>
      <trkpt lat="48.55501" lon="-4.71575">
        <ele>10.426</ele>
        <time>2010-08-16T12:23:46Z</time>
      </trkpt>
      <trkpt lat="48.55474" lon="-4.71529">
        <ele>8.937</ele>
        <time>2010-08-16T12:23:52Z</time>
      </trkpt>
      <trkpt lat="48.55443" lon="-4.71427">
        <ele>9.173</ele>
        <time>2010-08-16T12:24:02Z</time>
      </trkpt>
      <trkpt lat="48.55424" lon="-4.71394">
        <ele>7.483</ele>
        <time>2010-08-16T12:24:06Z</time>
      </trkpt>
      <trkpt lat="48.55389" lon="-4.71356">
        <ele>4.149</ele>
        <time>2010-08-16T12:24:11Z</time>
      </trkpt>
      <trkpt lat="48.55366" lon="-4.71332">
        <ele>2.019</ele>
        <time>2010-08-16T12:24:14Z</time>
      </trkpt>
      <trkpt lat="48.55342" lon="-4.71285">
        <ele>-0.284</ele>
        <time>2010-08-16T12:24:18Z</time>
      </trkpt>
      <trkpt lat="48.55299" lon="-4.71203">
        <ele>3.282</ele>
        <time>2010-08-16T12:24:26Z</time>
      </trkpt>
      <trkpt lat="48.55263" lon="-4.71161">
        <ele>6.393</ele>
        <time>2010-08-16T12:24:34Z</time>
      </trkpt>
      <trkpt lat="48.55259" lon="-4.71156">
        <ele>6.579</ele>
        <time>2010-08-16T12:24:35Z</time>
      </trkpt>
      <trkpt lat="48.55247" lon="-4.71142">
        <ele>7.765</ele>
        <time>2010-08-16T12:24:38Z</time>
      </trkpt>
      <trkpt lat="48.55168" lon="-4.71055">
        <ele>7.929</ele>
        <time>2010-08-16T12:24:56Z</time>
      </trkpt>
      <trkpt lat="48.55164" lon="-4.71051">
        <ele>8.117</ele>
        <time>2010-08-16T12:24:57Z</time>
      </trkpt>
      <trkpt lat="48.55085" lon="-4.70997">
        <ele>11.518</ele>
        <time>2010-08-16T12:25:14Z</time>
      </trkpt>
      <trkpt lat="48.5503" lon="-4.70949">
        <ele>14.546</ele>
        <time>2010-08-16T12:25:34Z</time>
      </trkpt>
      <trkpt lat="48.55006" lon="-4.7088">
        <ele>17.347</ele>
        <time>2010-08-16T12:25:47Z</time>
      </trkpt>
      <trkpt lat="48.5499" lon="-4.70811">
        <ele>18.49</ele>
        <time>2010-08-16T12:26:00Z</time>
      </trkpt>
      <trkpt lat="48.54966" lon="-4.70723">
        <ele>20.774</ele>
        <time>2010-08-16T12:26:18Z</time>
      </trkpt>
      <trkpt lat="48.54931" lon="-4.70672">
        <ele>21.367</ele>
        <time>2010-08-16T12:26:32Z</time>
      </trkpt>
      <trkpt lat="48.54927" lon="-4.70661">
        <ele>21.431</ele>
        <time>2010-08-16T12:26:36Z</time>
      </trkpt>
      <trkpt lat="48.5494" lon="-4.70644">
        <ele>20.885</ele>
        <time>2010-08-16T12:26:38Z</time>
      </trkpt>
      <trkpt lat="48.54951" lon="-4.70609">
        <ele>19.022</ele>
        <time>2010-08-16T12:26:42Z</time>
      </trkpt>
      <trkpt lat="48.54961" lon="-4.70585">
        <ele>17.798</ele>
        <time>2010-08-16T12:26:45Z</time>
      </trkpt>
      <trkpt lat="48.54967" lon="-4.70566">
        <ele>16.126</ele>
        <time>2010-08-16T12:26:47Z</time>
      </trkpt>
      <trkpt lat="48.54965" lon="-4.70509">
        <ele>12.165</ele>
        <time>2010-08-16T12:26:52Z</time>
      </trkpt>
      <trkpt lat="48.54959" lon="-4.705">
        <ele>11.961</ele>
        <time>2010-08-16T12:26:53Z</time>
      </trkpt>
      <trkpt lat="48.54938" lon="-4.70479">
        <ele>9.156</ele>
        <time>2010-08-16T12:26:56Z</time>
      </trkpt>
      <trkpt lat="48.54918" lon="-4.70405">
        <ele>3.118</ele>
        <time>2010-08-16T12:27:01Z</time>
      </trkpt>
      <trkpt lat="48.54923" lon="-4.70387">
        <ele>1.712</ele>
        <time>2010-08-16T12:27:03Z</time>
      </trkpt>
      <trkpt lat="48.54966" lon="-4.70368">
        <ele>3.748</ele>
        <time>2010-08-16T12:27:07Z</time>
      </trkpt>
      <trkpt lat="48.54998" lon="-4.70371">
        <ele>7.258</ele>
        <time>2010-08-16T12:27:11Z</time>
      </trkpt>
      <trkpt lat="48.55057" lon="-4.70375">
        <ele>6.384</ele>
        <time>2010-08-16T12:27:19Z</time>
      </trkpt>
      <trkpt lat="48.55081" lon="-4.70361">
        <ele>8.474</ele>
        <time>2010-08-16T12:27:23Z</time>
      </trkpt>
      <trkpt lat="48.55089" lon="-4.70349">
        <ele>9.816</ele>
        <time>2010-08-16T12:27:25Z</time>
      </trkpt>
      <trkpt lat="48.55115" lon="-4.70311">
        <ele>12.862</ele>
        <time>2010-08-16T12:27:32Z</time>
      </trkpt>
      <trkpt lat="48.55134" lon="-4.70273">
        <ele>14.593</ele>
        <time>2010-08-16T12:27:38Z</time>
      </trkpt>
      <trkpt lat="48.55155" lon="-4.70231">
        <ele>16.07</ele>
        <time>2010-08-16T12:27:45Z</time>
      </trkpt>
      <trkpt lat="48.55165" lon="-4.70209">
        <ele>16.352</ele>
        <time>2010-08-16T12:27:49Z</time>
      </trkpt>
      <trkpt lat="48.55176" lon="-4.70177">
        <ele>16.682</ele>
        <time>2010-08-16T12:27:54Z</time>
      </trkpt>
      <trkpt lat="48.55201" lon="-4.70072">
        <ele>19.096</ele>
        <time>2010-08-16T12:28:12Z</time>
      </trkpt>
      <trkpt lat="48.55209" lon="-4.69974">
        <ele>19.986</ele>
        <time>2010-08-16T12:28:29Z</time>
      </trkpt>
      <trkpt lat="48.5521" lon="-4.69955">
        <ele>19.932</ele>
        <time>2010-08-16T12:28:32Z</time>
      </trkpt>
      <trkpt lat="48.55166" lon="-4.69867">
        <ele>20.677</ele>
        <time>2010-08-16T12:28:46Z</time>
      </trkpt>
      <trkpt lat="48.55111" lon="-4.69729">
        <ele>22.51</ele>
        <time>2010-08-16T12:29:05Z</time>
      </trkpt>
      <trkpt lat="48.55072" lon="-4.69582">
        <ele>23.331</ele>
        <time>2010-08-16T12:29:22Z</time>
      </trkpt>
      <trkpt lat="48.55013" lon="-4.69432">
        <ele>24.642</ele>
        <time>2010-08-16T12:29:41Z</time>
      </trkpt>
      <trkpt lat="48.54929" lon="-4.69291">
        <ele>25.833</ele>
        <time>2010-08-16T12:30:01Z</time>
      </trkpt>
      <trkpt lat="48.54818" lon="-4.69127">
        <ele>24.577</ele>
        <time>2010-08-16T12:30:23Z</time>
      </trkpt>
      <trkpt lat="48.54754" lon="-4.68951">
        <ele>24.854</ele>
        <time>2010-08-16T12:30:41Z</time>
      </trkpt>
      <trkpt lat="48.54681" lon="-4.68615">
        <ele>27.003</ele>
        <time>2010-08-16T12:31:13Z</time>
      </trkpt>
      <trkpt lat="48.54616" lon="-4.683">
        <ele>28.303</ele>
        <time>2010-08-16T12:31:45Z</time>
      </trkpt>
      <trkpt lat="48.54567" lon="-4.68076">
        <ele>31.458</ele>
        <time>2010-08-16T12:32:09Z</time>
      </trkpt>
      <trkpt lat="48.54555" lon="-4.68016">
        <ele>32.642</ele>
        <time>2010-08-16T12:32:16Z</time>
      </trkpt>
      <trkpt lat="48.54519" lon="-4.67842">
        <ele>34.426</ele>
        <time>2010-08-16T12:32:40Z</time>
      </trkpt>
      <trkpt lat="48.54513" lon="-4.67811">
        <ele>34.363</ele>
        <time>2010-08-16T12:32:44Z</time>
      </trkpt>
      <trkpt lat="48.54507" lon="-4.67782">
        <ele>34.908</ele>
        <time>2010-08-16T12:32:48Z</time>
      </trkpt>
      <trkpt lat="48.54507" lon="-4.67782">
        <ele>34.986</ele>
        <time>2010-08-16T12:32:50Z</time>
      </trkpt>
      <trkpt lat="48.54498" lon="-4.67747">
        <ele>35.216</ele>
        <time>2010-08-16T12:32:54Z</time>
      </trkpt>
      <trkpt lat="48.54485" lon="-4.67701">
        <ele>34.693</ele>
        <time>2010-08-16T12:33:00Z</time>
      </trkpt>
      <trkpt lat="48.54485" lon="-4.677">
        <ele>34.626</ele>
        <time>2010-08-16T12:33:03Z</time>
      </trkpt>
      <trkpt lat="48.54481" lon="-4.67657">
        <ele>34.775</ele>
        <time>2010-08-16T12:33:05Z</time>
      </trkpt>
      <trkpt lat="48.54444" lon="-4.67448">
        <ele>33.484</ele>
        <time>2010-08-16T12:33:27Z</time>
      </trkpt>
      <trkpt lat="48.54407" lon="-4.67256">
        <ele>34.795</ele>
        <time>2010-08-16T12:33:46Z</time>
      </trkpt>
      <trkpt lat="48.54378" lon="-4.67099">
        <ele>37.905</ele>
        <time>2010-08-16T12:34:06Z</time>
      </trkpt>
      <trkpt lat="48.54353" lon="-4.66941">
        <ele>41.1</ele>
        <time>2010-08-16T12:34:22Z</time>
      </trkpt>
      <trkpt lat="48.54338" lon="-4.66759">
        <ele>42.43</ele>
        <time>2010-08-16T12:34:42Z</time>
      </trkpt>
      <trkpt lat="48.54336" lon="-4.66753">
        <ele>42.215</ele>
        <time>2010-08-16T12:34:43Z</time>
      </trkpt>
      <trkpt lat="48.54335" lon="-4.66743">
        <ele>42.46</ele>
        <time>2010-08-16T12:34:47Z</time>
      </trkpt>
      <trkpt lat="48.54323" lon="-4.667">
        <ele>42.676</ele>
        <time>2010-08-16T12:34:51Z</time>
      </trkpt>
      <trkpt lat="48.54316" lon="-4.6667">
        <ele>42.742</ele>
        <time>2010-08-16T12:34:55Z</time>
      </trkpt>
      <trkpt lat="48.54287" lon="-4.66544">
        <ele>45.821</ele>
        <time>2010-08-16T12:35:11Z</time>
      </trkpt>
      <trkpt lat="48.54257" lon="-4.66407">
        <ele>48.832</ele>
        <time>2010-08-16T12:35:30Z</time>
      </trkpt>
      <trkpt lat="48.54228" lon="-4.66279">
        <ele>50.751</ele>
        <time>2010-08-16T12:35:52Z</time>
      </trkpt>
      <trkpt lat="48.54204" lon="-4.6617">
        <ele>50.953</ele>
        <time>2010-08-16T12:36:09Z</time>
      </trkpt>
      <trkpt lat="48.54176" lon="-4.66044">
        <ele>48.488</ele>
        <time>2010-08-16T12:36:26Z</time>
      </trkpt>
      <trkpt lat="48.54152" lon="-4.65996">
        <ele>49.645</ele>
        <time>2010-08-16T12:36:32Z</time>
      </trkpt>
      <trkpt lat="48.54144" lon="-4.65985">
        <ele>49.363</ele>
        <time>2010-08-16T12:36:35Z</time>
      </trkpt>
      <trkpt lat="48.54137" lon="-4.65975">
        <ele>49.105</ele>
        <time>2010-08-16T12:36:37Z</time>
      </trkpt>
      <trkpt lat="48.54152" lon="-4.65912">
        <ele>48.808</ele>
        <time>2010-08-16T12:36:45Z</time>
      </trkpt>
      <trkpt lat="48.54153" lon="-4.65877">
        <ele>48.79</ele>
        <time>2010-08-16T12:36:49Z</time>
      </trkpt>
      <trkpt lat="48.54142" lon="-4.6578">
        <ele>51.134</ele>
        <time>2010-08-16T12:37:02Z</time>
      </trkpt>
      <trkpt lat="48.54133" lon="-4.65718">
        <ele>49.836</ele>
        <time>2010-08-16T12:37:12Z</time>
      </trkpt>
      <trkpt lat="48.54129" lon="-4.65692">
        <ele>49.544</ele>
        <time>2010-08-16T12:37:17Z</time>
      </trkpt>
      <trkpt lat="48.54106" lon="-4.6564">
        <ele>48.768</ele>
        <time>2010-08-16T12:37:22Z</time>
      </trkpt>
      <trkpt lat="48.54019" lon="-4.65528">
        <ele>47.016</ele>
        <time>2010-08-16T12:37:38Z</time>
      </trkpt>
      <trkpt lat="48.53983" lon="-4.65474">
        <ele>46.346</ele>
        <time>2010-08-16T12:37:45Z</time>
      </trkpt>
      <trkpt lat="48.53964" lon="-4.65428">
        <ele>46.1</ele>
        <time>2010-08-16T12:37:50Z</time>
      </trkpt>
      <trkpt lat="48.53952" lon="-4.65402">
        <ele>46.69</ele>
        <time>2010-08-16T12:37:53Z</time>
      </trkpt>
      <trkpt lat="48.53918" lon="-4.65262">
        <ele>49.572</ele>
        <time>2010-08-16T12:38:08Z</time>
      </trkpt>
      <trkpt lat="48.53902" lon="-4.65195">
        <ele>50.907</ele>
        <time>2010-08-16T12:38:16Z</time>
      </trkpt>
      <trkpt lat="48.53897" lon="-4.65177">
        <ele>50.478</ele>
        <time>2010-08-16T12:38:20Z</time>
      </trkpt>
      <trkpt lat="48.53862" lon="-4.64999">
        <ele>53.36</ele>
        <time>2010-08-16T12:38:40Z</time>
      </trkpt>
      <trkpt lat="48.53848" lon="-4.6494">
        <ele>54.268</ele>
        <time>2010-08-16T12:38:48Z</time>
      </trkpt>
      <trkpt lat="48.53833" lon="-4.64846">
        <ele>56.742</ele>
        <time>2010-08-16T12:39:05Z</time>
      </trkpt>
      <trkpt lat="48.53835" lon="-4.64806">
        <ele>55.932</ele>
        <time>2010-08-16T12:39:14Z</time>
      </trkpt>
      <trkpt lat="48.53836" lon="-4.648">
        <ele>55.591</ele>
        <time>2010-08-16T12:39:15Z</time>
      </trkpt>
      <trkpt lat="48.53848" lon="-4.64671">
        <ele>52.132</ele>
        <time>2010-08-16T12:39:29Z</time>
      </trkpt>
      <trkpt lat="48.53854" lon="-4.64567">
        <ele>48.954</ele>
        <time>2010-08-16T12:39:37Z</time>
      </trkpt>
      <trkpt lat="48.53855" lon="-4.64552">
        <ele>48.798</ele>
        <time>2010-08-16T12:39:38Z</time>
      </trkpt>
      <trkpt lat="48.53858" lon="-4.6451">
        <ele>46.353</ele>
        <time>2010-08-16T12:39:41Z</time>
      </trkpt>
      <trkpt lat="48.53849" lon="-4.64289">
        <ele>46.761</ele>
        <time>2010-08-16T12:39:57Z</time>
      </trkpt>
      <trkpt lat="48.53805" lon="-4.64132">
        <ele>49.012</ele>
        <time>2010-08-16T12:40:12Z</time>
      </trkpt>
      <trkpt lat="48.53727" lon="-4.63973">
        <ele>51.518</ele>
        <time>2010-08-16T12:40:32Z</time>
      </trkpt>
      <trkpt lat="48.53636" lon="-4.63917">
        <ele>54.141</ele>
        <time>2010-08-16T12:40:49Z</time>
      </trkpt>
      <trkpt lat="48.53537" lon="-4.63866">
        <ele>56.882</ele>
        <time>2010-08-16T12:41:08Z</time>
      </trkpt>
      <trkpt lat="48.53445" lon="-4.63773">
        <ele>59.747</ele>
        <time>2010-08-16T12:41:29Z</time>
      </trkpt>
      <trkpt lat="48.53377" lon="-4.63622">
        <ele>61.093</ele>
        <time>2010-08-16T12:41:50Z</time>
      </trkpt>
      <trkpt lat="48.53318" lon="-4.63437">
        <ele>61.827</ele>
        <time>2010-08-16T12:42:11Z</time>
      </trkpt>
      <trkpt lat="48.53292" lon="-4.63244">
        <ele>64.26</ele>
        <time>2010-08-16T12:42:33Z</time>
      </trkpt>
      <trkpt lat="48.53245" lon="-4.63066">
        <ele>63.588</ele>
        <time>2010-08-16T12:42:53Z</time>
      </trkpt>
      <trkpt lat="48.53186" lon="-4.62892">
        <ele>60.543</ele>
        <time>2010-08-16T12:43:10Z</time>
      </trkpt>
      <trkpt lat="48.53169" lon="-4.62738">
        <ele>62.436</ele>
        <time>2010-08-16T12:43:24Z</time>
      </trkpt>
      <trkpt lat="48.53149" lon="-4.6248">
        <ele>64.346</ele>
        <time>2010-08-16T12:43:49Z</time>
      </trkpt>
      <trkpt lat="48.531" lon="-4.62242">
        <ele>64.576</ele>
        <time>2010-08-16T12:44:12Z</time>
      </trkpt>
      <trkpt lat="48.53021" lon="-4.62053">
        <ele>65.465</ele>
        <time>2010-08-16T12:44:33Z</time>
      </trkpt>
      <trkpt lat="48.52916" lon="-4.61824">
        <ele>68.164</ele>
        <time>2010-08-16T12:45:00Z</time>
      </trkpt>
      <trkpt lat="48.52838" lon="-4.61618">
        <ele>68.936</ele>
        <time>2010-08-16T12:45:24Z</time>
      </trkpt>
      <trkpt lat="48.52748" lon="-4.6138">
        <ele>68.636</ele>
        <time>2010-08-16T12:45:51Z</time>
      </trkpt>
      <trkpt lat="48.52692" lon="-4.61173">
        <ele>69.945</ele>
        <time>2010-08-16T12:46:13Z</time>
      </trkpt>
      <trkpt lat="48.52649" lon="-4.60919">
        <ele>66.789</ele>
        <time>2010-08-16T12:46:37Z</time>
      </trkpt>
      <trkpt lat="48.52647" lon="-4.60907">
        <ele>66.801</ele>
        <time>2010-08-16T12:46:38Z</time>
      </trkpt>
      <trkpt lat="48.52601" lon="-4.60719">
        <ele>66.843</ele>
        <time>2010-08-16T12:46:55Z</time>
      </trkpt>
      <trkpt lat="48.52577" lon="-4.60637">
        <ele>65.756</ele>
        <time>2010-08-16T12:47:03Z</time>
      </trkpt>
      <trkpt lat="48.52527" lon="-4.6047">
        <ele>62.587</ele>
        <time>2010-08-16T12:47:18Z</time>
      </trkpt>
      <trkpt lat="48.52516" lon="-4.60435">
        <ele>61.296</ele>
        <time>2010-08-16T12:47:21Z</time>
      </trkpt>
      <trkpt lat="48.52503" lon="-4.60384">
        <ele>58.867</ele>
        <time>2010-08-16T12:47:25Z</time>
      </trkpt>
      <trkpt lat="48.52491" lon="-4.60246">
        <ele>62.064</ele>
        <time>2010-08-16T12:47:37Z</time>
      </trkpt>
      <trkpt lat="48.5249" lon="-4.60227">
        <ele>61.988</ele>
        <time>2010-08-16T12:47:39Z</time>
      </trkpt>
      <trkpt lat="48.52473" lon="-4.60155">
        <ele>63.093</ele>
        <time>2010-08-16T12:47:47Z</time>
      </trkpt>
      <trkpt lat="48.52459" lon="-4.60093">
        <ele>61.679</ele>
        <time>2010-08-16T12:47:54Z</time>
      </trkpt>
      <trkpt lat="48.52459" lon="-4.60042">
        <ele>59.905</ele>
        <time>2010-08-16T12:47:59Z</time>
      </trkpt>
      <trkpt lat="48.52459" lon="-4.60014">
        <ele>61.344</ele>
        <time>2010-08-16T12:48:03Z</time>
      </trkpt>
      <trkpt lat="48.52468" lon="-4.59937">
        <ele>58.044</ele>
        <time>2010-08-16T12:48:12Z</time>
      </trkpt>
      <trkpt lat="48.52472" lon="-4.59897">
        <ele>57.849</ele>
        <time>2010-08-16T12:48:13Z</time>
      </trkpt>
      <trkpt lat="48.52475" lon="-4.59854">
        <ele>56.512</ele>
        <time>2010-08-16T12:48:17Z</time>
      </trkpt>
      <trkpt lat="48.52465" lon="-4.59802">
        <ele>57.205</ele>
        <time>2010-08-16T12:48:22Z</time>
      </trkpt>
      <trkpt lat="48.52439" lon="-4.5975">
        <ele>53.617</ele>
        <time>2010-08-16T12:48:27Z</time>
      </trkpt>
      <trkpt lat="48.52417" lon="-4.59705">
        <ele>51.155</ele>
        <time>2010-08-16T12:48:31Z</time>
      </trkpt>
      <trkpt lat="48.52408" lon="-4.59679">
        <ele>50.19</ele>
        <time>2010-08-16T12:48:33Z</time>
      </trkpt>
      <trkpt lat="48.52391" lon="-4.59621">
        <ele>47.936</ele>
        <time>2010-08-16T12:48:37Z</time>
      </trkpt>
      <trkpt lat="48.52385" lon="-4.59589">
        <ele>44.812</ele>
        <time>2010-08-16T12:48:39Z</time>
      </trkpt>
      <trkpt lat="48.52372" lon="-4.59524">
        <ele>42.995</ele>
        <time>2010-08-16T12:48:43Z</time>
      </trkpt>
      <trkpt lat="48.52363" lon="-4.59476">
        <ele>43.383</ele>
        <time>2010-08-16T12:48:46Z</time>
      </trkpt>
      <trkpt lat="48.5234" lon="-4.59384">
        <ele>39.78</ele>
        <time>2010-08-16T12:48:52Z</time>
      </trkpt>
      <trkpt lat="48.52322" lon="-4.59341">
        <ele>37.878</ele>
        <time>2010-08-16T12:48:55Z</time>
      </trkpt>
      <trkpt lat="48.52264" lon="-4.59299">
        <ele>34.327</ele>
        <time>2010-08-16T12:49:01Z</time>
      </trkpt>
      <trkpt lat="48.52201" lon="-4.59316">
        <ele>30.264</ele>
        <time>2010-08-16T12:49:07Z</time>
      </trkpt>
      <trkpt lat="48.52179" lon="-4.59321">
        <ele>28.984</ele>
        <time>2010-08-16T12:49:09Z</time>
      </trkpt>
      <trkpt lat="48.52122" lon="-4.59332">
        <ele>27.048</ele>
        <time>2010-08-16T12:49:14Z</time>
      </trkpt>
      <trkpt lat="48.52074" lon="-4.5934">
        <ele>23.865</ele>
        <time>2010-08-16T12:49:18Z</time>
      </trkpt>
      <trkpt lat="48.52019" lon="-4.5929">
        <ele>22.686</ele>
        <time>2010-08-16T12:49:24Z</time>
      </trkpt>
      <trkpt lat="48.52024" lon="-4.59213">
        <ele>25.342</ele>
        <time>2010-08-16T12:49:30Z</time>
      </trkpt>
      <trkpt lat="48.52029" lon="-4.59207">
        <ele>26.002</ele>
        <time>2010-08-16T12:49:31Z</time>
      </trkpt>
      <trkpt lat="48.52039" lon="-4.59196">
        <ele>27.008</ele>
        <time>2010-08-16T12:49:33Z</time>
      </trkpt>
      <trkpt lat="48.52051" lon="-4.59184">
        <ele>28.762</ele>
        <time>2010-08-16T12:49:37Z</time>
      </trkpt>
      <trkpt lat="48.52051" lon="-4.59184">
        <ele>28.743</ele>
        <time>2010-08-16T12:49:41Z</time>
      </trkpt>
      <trkpt lat="48.52055" lon="-4.59178">
        <ele>28.421</ele>
        <time>2010-08-16T12:49:43Z</time>
      </trkpt>
      <trkpt lat="48.5204" lon="-4.59195">
        <ele>26.431</ele>
        <time>2010-08-16T12:49:50Z</time>
      </trkpt>
      <trkpt lat="48.5203" lon="-4.59206">
        <ele>25.358</ele>
        <time>2010-08-16T12:49:52Z</time>
      </trkpt>
      <trkpt lat="48.51993" lon="-4.59219">
        <ele>25.294</ele>
        <time>2010-08-16T12:49:58Z</time>
      </trkpt>
      <trkpt lat="48.51958" lon="-4.59216">
        <ele>24.945</ele>
        <time>2010-08-16T12:50:03Z</time>
      </trkpt>
      <trkpt lat="48.51893" lon="-4.59177">
        <ele>23.456</ele>
        <time>2010-08-16T12:50:13Z</time>
      </trkpt>
      <trkpt lat="48.51792" lon="-4.59071">
        <ele>23.052</ele>
        <time>2010-08-16T12:50:30Z</time>
      </trkpt>
      <trkpt lat="48.51707" lon="-4.59045">
        <ele>24.712</ele>
        <time>2010-08-16T12:50:43Z</time>
      </trkpt>
      <trkpt lat="48.51652" lon="-4.59051">
        <ele>26.863</ele>
        <time>2010-08-16T12:50:54Z</time>
      </trkpt>
      <trkpt lat="48.51601" lon="-4.59057">
        <ele>28.132</ele>
        <time>2010-08-16T12:51:08Z</time>
      </trkpt>
      <trkpt lat="48.51508" lon="-4.5907">
        <ele>27.686</ele>
        <time>2010-08-16T12:51:27Z</time>
      </trkpt>
      <trkpt lat="48.51403" lon="-4.59079">
        <ele>26.028</ele>
        <time>2010-08-16T12:51:43Z</time>
      </trkpt>
      <trkpt lat="48.51312" lon="-4.59036">
        <ele>26.887</ele>
        <time>2010-08-16T12:51:57Z</time>
      </trkpt>
      <trkpt lat="48.51255" lon="-4.58973">
        <ele>30.083</ele>
        <time>2010-08-16T12:52:10Z</time>
      </trkpt>
      <trkpt lat="48.5117" lon="-4.58873">
        <ele>32.485</ele>
        <time>2010-08-16T12:52:32Z</time>
      </trkpt>
      <trkpt lat="48.51081" lon="-4.58772">
        <ele>33.882</ele>
        <time>2010-08-16T12:52:53Z</time>
      </trkpt>
      <trkpt lat="48.51027" lon="-4.58714">
        <ele>37.211</ele>
        <time>2010-08-16T12:53:07Z</time>
      </trkpt>
      <trkpt lat="48.50989" lon="-4.58679">
        <ele>40.406</ele>
        <time>2010-08-16T12:53:21Z</time>
      </trkpt>
      <trkpt lat="48.50949" lon="-4.58646">
        <ele>43.431</ele>
        <time>2010-08-16T12:53:36Z</time>
      </trkpt>
      <trkpt lat="48.50909" lon="-4.58612">
        <ele>46.947</ele>
        <time>2010-08-16T12:53:50Z</time>
      </trkpt>
      <trkpt lat="48.50868" lon="-4.58575">
        <ele>49.98</ele>
        <time>2010-08-16T12:54:07Z</time>
      </trkpt>
      <trkpt lat="48.50831" lon="-4.58527">
        <ele>53.21</ele>
        <time>2010-08-16T12:54:25Z</time>
      </trkpt>
      <trkpt lat="48.50779" lon="-4.58451">
        <ele>54.319</ele>
        <time>2010-08-16T12:54:46Z</time>
      </trkpt>
      <trkpt lat="48.50745" lon="-4.58407">
        <ele>55.036</ele>
        <time>2010-08-16T12:54:56Z</time>
      </trkpt>
      <trkpt lat="48.50657" lon="-4.58323">
        <ele>54.922</ele>
        <time>2010-08-16T12:55:16Z</time>
      </trkpt>
      <trkpt lat="48.50546" lon="-4.5822">
        <ele>51.724</ele>
        <time>2010-08-16T12:55:35Z</time>
      </trkpt>
      <trkpt lat="48.50362" lon="-4.58053">
        <ele>52.372</ele>
        <time>2010-08-16T12:56:03Z</time>
      </trkpt>
      <trkpt lat="48.50199" lon="-4.57903">
        <ele>54.149</ele>
        <time>2010-08-16T12:56:31Z</time>
      </trkpt>
      <trkpt lat="48.50071" lon="-4.57786">
        <ele>53.442</ele>
        <time>2010-08-16T12:56:54Z</time>
      </trkpt>
      <trkpt lat="48.49929" lon="-4.57657">
        <ele>52.444</ele>
        <time>2010-08-16T12:57:17Z</time>
      </trkpt>
      <trkpt lat="48.49814" lon="-4.57567">
        <ele>54.543</ele>
        <time>2010-08-16T12:57:37Z</time>
      </trkpt>
      <trkpt lat="48.49726" lon="-4.57542">
        <ele>55.772</ele>
        <time>2010-08-16T12:57:53Z</time>
      </trkpt>
      <trkpt lat="48.49582" lon="-4.57556">
        <ele>54.652</ele>
        <time>2010-08-16T12:58:17Z</time>
      </trkpt>
      <trkpt lat="48.49457" lon="-4.57572">
        <ele>56.856</ele>
        <time>2010-08-16T12:58:41Z</time>
      </trkpt>
      <trkpt lat="48.49393" lon="-4.57576">
        <ele>60.095</ele>
        <time>2010-08-16T12:58:56Z</time>
      </trkpt>
      <trkpt lat="48.49346" lon="-4.57566">
        <ele>63.258</ele>
        <time>2010-08-16T12:59:09Z</time>
      </trkpt>
      <trkpt lat="48.493" lon="-4.57556">
        <ele>66.322</ele>
        <time>2010-08-16T12:59:23Z</time>
      </trkpt>
      <trkpt lat="48.49263" lon="-4.57547">
        <ele>69.058</ele>
        <time>2010-08-16T12:59:39Z</time>
      </trkpt>
      <trkpt lat="48.49229" lon="-4.57535">
        <ele>70.715</ele>
        <time>2010-08-16T12:59:52Z</time>
      </trkpt>
      <trkpt lat="48.49185" lon="-4.57492">
        <ele>72.464</ele>
        <time>2010-08-16T13:00:09Z</time>
      </trkpt>
      <trkpt lat="48.49148" lon="-4.57469">
        <ele>72.307</ele>
        <time>2010-08-16T13:00:21Z</time>
      </trkpt>
      <trkpt lat="48.49131" lon="-4.57466">
        <ele>71.317</ele>
        <time>2010-08-16T13:00:25Z</time>
      </trkpt>
      <trkpt lat="48.49112" lon="-4.57462">
        <ele>70.749</ele>
        <time>2010-08-16T13:00:29Z</time>
      </trkpt>
      <trkpt lat="48.49104" lon="-4.5746">
        <ele>69.527</ele>
        <time>2010-08-16T13:00:33Z</time>
      </trkpt>
      <trkpt lat="48.49006" lon="-4.57419">
        <ele>68.112</ele>
        <time>2010-08-16T13:00:47Z</time>
      </trkpt>
      <trkpt lat="48.48924" lon="-4.5741">
        <ele>68.51</ele>
        <time>2010-08-16T13:00:59Z</time>
      </trkpt>
      <trkpt lat="48.48891" lon="-4.57401">
        <ele>68.425</ele>
        <time>2010-08-16T13:01:04Z</time>
      </trkpt>
      <trkpt lat="48.48846" lon="-4.57303">
        <ele>69.386</ele>
        <time>2010-08-16T13:01:17Z</time>
      </trkpt>
      <trkpt lat="48.48804" lon="-4.57187">
        <ele>70.919</ele>
        <time>2010-08-16T13:01:33Z</time>
      </trkpt>
      <trkpt lat="48.48792" lon="-4.57062">
        <ele>67.129</ele>
        <time>2010-08-16T13:01:45Z</time>
      </trkpt>
      <trkpt lat="48.48781" lon="-4.56906">
        <ele>69.545</ele>
        <time>2010-08-16T13:01:58Z</time>
      </trkpt>
      <trkpt lat="48.48781" lon="-4.56889">
        <ele>70.528</ele>
        <time>2010-08-16T13:02:00Z</time>
      </trkpt>
      <trkpt lat="48.48779" lon="-4.56851">
        <ele>72.091</ele>
        <time>2010-08-16T13:02:05Z</time>
      </trkpt>
      <trkpt lat="48.48776" lon="-4.56814">
        <ele>73.474</ele>
        <time>2010-08-16T13:02:10Z</time>
      </trkpt>
      <trkpt lat="48.48751" lon="-4.56746">
        <ele>75.323</ele>
        <time>2010-08-16T13:02:20Z</time>
      </trkpt>
      <trkpt lat="48.48727" lon="-4.56715">
        <ele>76.399</ele>
        <time>2010-08-16T13:02:27Z</time>
      </trkpt>
      <trkpt lat="48.48636" lon="-4.56665">
        <ele>78.28</ele>
        <time>2010-08-16T13:02:47Z</time>
      </trkpt>
      <trkpt lat="48.48534" lon="-4.56582">
        <ele>79.208</ele>
        <time>2010-08-16T13:03:09Z</time>
      </trkpt>
      <trkpt lat="48.48439" lon="-4.56529">
        <ele>82.324</ele>
        <time>2010-08-16T13:03:28Z</time>
      </trkpt>
      <trkpt lat="48.48325" lon="-4.56519">
        <ele>84.042</ele>
        <time>2010-08-16T13:03:49Z</time>
      </trkpt>
      <trkpt lat="48.48204" lon="-4.56522">
        <ele>81.683</ele>
        <time>2010-08-16T13:04:07Z</time>
      </trkpt>
      <trkpt lat="48.48117" lon="-4.56525">
        <ele>78.273</ele>
        <time>2010-08-16T13:04:17Z</time>
      </trkpt>
      <trkpt lat="48.48028" lon="-4.56529">
        <ele>75.178</ele>
        <time>2010-08-16T13:04:27Z</time>
      </trkpt>
      <trkpt lat="48.47941" lon="-4.5655">
        <ele>78.228</ele>
        <time>2010-08-16T13:04:38Z</time>
      </trkpt>
      <trkpt lat="48.47934" lon="-4.56554">
        <ele>78.241</ele>
        <time>2010-08-16T13:04:39Z</time>
      </trkpt>
      <trkpt lat="48.47858" lon="-4.56594">
        <ele>81.307</ele>
        <time>2010-08-16T13:04:52Z</time>
      </trkpt>
      <trkpt lat="48.47746" lon="-4.56652">
        <ele>84.366</ele>
        <time>2010-08-16T13:05:15Z</time>
      </trkpt>
      <trkpt lat="48.4765" lon="-4.56684">
        <ele>87.163</ele>
        <time>2010-08-16T13:05:38Z</time>
      </trkpt>
      <trkpt lat="48.47567" lon="-4.56687">
        <ele>87.848</ele>
        <time>2010-08-16T13:05:57Z</time>
      </trkpt>
      <trkpt lat="48.47488" lon="-4.56707">
        <ele>84.613</ele>
        <time>2010-08-16T13:06:10Z</time>
      </trkpt>
      <trkpt lat="48.47475" lon="-4.56714">
        <ele>83.693</ele>
        <time>2010-08-16T13:06:12Z</time>
      </trkpt>
      <trkpt lat="48.47404" lon="-4.56765">
        <ele>80.652</ele>
        <time>2010-08-16T13:06:24Z</time>
      </trkpt>
      <trkpt lat="48.47296" lon="-4.56833">
        <ele>82.285</ele>
        <time>2010-08-16T13:06:39Z</time>
      </trkpt>
      <trkpt lat="48.47278" lon="-4.5684">
        <ele>82.912</ele>
        <time>2010-08-16T13:06:42Z</time>
      </trkpt>
      <trkpt lat="48.47271" lon="-4.56842">
        <ele>83.243</ele>
        <time>2010-08-16T13:06:44Z</time>
      </trkpt>
      <trkpt lat="48.47211" lon="-4.56838">
        <ele>82.847</ele>
        <time>2010-08-16T13:06:53Z</time>
      </trkpt>
      <trkpt lat="48.47161" lon="-4.56813">
        <ele>79.619</ele>
        <time>2010-08-16T13:07:00Z</time>
      </trkpt>
      <trkpt lat="48.47108" lon="-4.56796">
        <ele>76.374</ele>
        <time>2010-08-16T13:07:06Z</time>
      </trkpt>
      <trkpt lat="48.47031" lon="-4.5683">
        <ele>76.916</ele>
        <time>2010-08-16T13:07:15Z</time>
      </trkpt>
      <trkpt lat="48.47011" lon="-4.56838">
        <ele>78.673</ele>
        <time>2010-08-16T13:07:18Z</time>
      </trkpt>
      <trkpt lat="48.4696" lon="-4.56842">
        <ele>81.363</ele>
        <time>2010-08-16T13:07:27Z</time>
      </trkpt>
      <trkpt lat="48.46879" lon="-4.56793">
        <ele>81.639</ele>
        <time>2010-08-16T13:07:42Z</time>
      </trkpt>
      <trkpt lat="48.46811" lon="-4.5676">
        <ele>83.542</ele>
        <time>2010-08-16T13:07:55Z</time>
      </trkpt>
      <trkpt lat="48.46729" lon="-4.56744">
        <ele>85.936</ele>
        <time>2010-08-16T13:08:11Z</time>
      </trkpt>
      <trkpt lat="48.46712" lon="-4.56738">
        <ele>86.183</ele>
        <time>2010-08-16T13:08:15Z</time>
      </trkpt>
      <trkpt lat="48.46671" lon="-4.56704">
        <ele>87.611</ele>
        <time>2010-08-16T13:08:28Z</time>
      </trkpt>
      <trkpt lat="48.46656" lon="-4.5669">
        <ele>87.599</ele>
        <time>2010-08-16T13:08:34Z</time>
      </trkpt>
      <trkpt lat="48.46645" lon="-4.56675">
        <ele>87.923</ele>
        <time>2010-08-16T13:08:46Z</time>
      </trkpt>
      <trkpt lat="48.46645" lon="-4.56675">
        <ele>87.955</ele>
        <time>2010-08-16T13:08:53Z</time>
      </trkpt>
      <trkpt lat="48.46642" lon="-4.5667">
        <ele>87.927</ele>
        <time>2010-08-16T13:09:05Z</time>
      </trkpt>
      <trkpt lat="48.46642" lon="-4.5667">
        <ele>88.136</ele>
        <time>2010-08-16T13:09:54Z</time>
      </trkpt>
      <trkpt lat="48.46642" lon="-4.5667">
        <ele>87.747</ele>
        <time>2010-08-16T13:10:02Z</time>
      </trkpt>
      <trkpt lat="48.46638" lon="-4.56672">
        <ele>87.953</ele>
        <time>2010-08-16T13:10:04Z</time>
      </trkpt>
      <trkpt lat="48.4664" lon="-4.56667">
        <ele>87.901</ele>
        <time>2010-08-16T13:10:12Z</time>
      </trkpt>
      <trkpt lat="48.4669" lon="-4.56575">
        <ele>84.69</ele>
        <time>2010-08-16T13:10:23Z</time>
      </trkpt>
      <trkpt lat="48.46699" lon="-4.5656">
        <ele>85.272</ele>
        <time>2010-08-16T13:10:25Z</time>
      </trkpt>
      <trkpt lat="48.46709" lon="-4.56503">
        <ele>84.882</ele>
        <time>2010-08-16T13:10:32Z</time>
      </trkpt>
      <trkpt lat="48.46669" lon="-4.56452">
        <ele>86.061</ele>
        <time>2010-08-16T13:10:40Z</time>
      </trkpt>
      <trkpt lat="48.466" lon="-4.5642">
        <ele>86.513</ele>
        <time>2010-08-16T13:10:51Z</time>
      </trkpt>
      <trkpt lat="48.46497" lon="-4.56386">
        <ele>83.132</ele>
        <time>2010-08-16T13:11:05Z</time>
      </trkpt>
      <trkpt lat="48.46384" lon="-4.56286">
        <ele>81.879</ele>
        <time>2010-08-16T13:11:22Z</time>
      </trkpt>
      <trkpt lat="48.46345" lon="-4.56231">
        <ele>85.068</ele>
        <time>2010-08-16T13:11:30Z</time>
      </trkpt>
      <trkpt lat="48.463" lon="-4.56153">
        <ele>88.07</ele>
        <time>2010-08-16T13:11:43Z</time>
      </trkpt>
      <trkpt lat="48.46245" lon="-4.56053">
        <ele>91.153</ele>
        <time>2010-08-16T13:12:01Z</time>
      </trkpt>
      <trkpt lat="48.46146" lon="-4.55944">
        <ele>92.661</ele>
        <time>2010-08-16T13:12:23Z</time>
      </trkpt>
      <trkpt lat="48.46027" lon="-4.55883">
        <ele>93.957</ele>
        <time>2010-08-16T13:12:44Z</time>
      </trkpt>
      <trkpt lat="48.45888" lon="-4.55879">
        <ele>94.996</ele>
        <time>2010-08-16T13:13:06Z</time>
      </trkpt>
      <trkpt lat="48.45737" lon="-4.55875">
        <ele>96.342</ele>
        <time>2010-08-16T13:13:30Z</time>
      </trkpt>
      <trkpt lat="48.45589" lon="-4.55838">
        <ele>95.353</ele>
        <time>2010-08-16T13:13:52Z</time>
      </trkpt>
      <trkpt lat="48.4541" lon="-4.55787">
        <ele>92.996</ele>
        <time>2010-08-16T13:14:15Z</time>
      </trkpt>
      <trkpt lat="48.45233" lon="-4.55703">
        <ele>92.51</ele>
        <time>2010-08-16T13:14:37Z</time>
      </trkpt>
      <trkpt lat="48.4507" lon="-4.55623">
        <ele>94.671</ele>
        <time>2010-08-16T13:14:59Z</time>
      </trkpt>
      <trkpt lat="48.4494" lon="-4.55553">
        <ele>94.443</ele>
        <time>2010-08-16T13:15:19Z</time>
      </trkpt>
      <trkpt lat="48.44851" lon="-4.55482">
        <ele>96.221</ele>
        <time>2010-08-16T13:15:36Z</time>
      </trkpt>
      <trkpt lat="48.44773" lon="-4.55394">
        <ele>98.969</ele>
        <time>2010-08-16T13:15:53Z</time>
      </trkpt>
      <trkpt lat="48.44735" lon="-4.5534">
        <ele>99.556</ele>
        <time>2010-08-16T13:16:07Z</time>
      </trkpt>
      <trkpt lat="48.447" lon="-4.55319">
        <ele>99.958</ele>
        <time>2010-08-16T13:16:12Z</time>
      </trkpt>
      <trkpt lat="48.447" lon="-4.55319">
        <ele>100.247</ele>
        <time>2010-08-16T13:16:14Z</time>
      </trkpt>
      <trkpt lat="48.44666" lon="-4.55276">
        <ele>99.144</ele>
        <time>2010-08-16T13:16:20Z</time>
      </trkpt>
      <trkpt lat="48.44643" lon="-4.55253">
        <ele>97.754</ele>
        <time>2010-08-16T13:16:23Z</time>
      </trkpt>
      <trkpt lat="48.44543" lon="-4.55178">
        <ele>94.752</ele>
        <time>2010-08-16T13:16:37Z</time>
      </trkpt>
      <trkpt lat="48.44485" lon="-4.55135">
        <ele>91.32</ele>
        <time>2010-08-16T13:16:44Z</time>
      </trkpt>
      <trkpt lat="48.44385" lon="-4.55058">
        <ele>88.313</ele>
        <time>2010-08-16T13:16:55Z</time>
      </trkpt>
      <trkpt lat="48.44256" lon="-4.5495">
        <ele>85.243</ele>
        <time>2010-08-16T13:17:09Z</time>
      </trkpt>
      <trkpt lat="48.4416" lon="-4.5487">
        <ele>82.581</ele>
        <time>2010-08-16T13:17:19Z</time>
      </trkpt>
      <trkpt lat="48.43997" lon="-4.54734">
        <ele>85.518</ele>
        <time>2010-08-16T13:17:38Z</time>
      </trkpt>
      <trkpt lat="48.43924" lon="-4.54662">
        <ele>88.454</ele>
        <time>2010-08-16T13:17:51Z</time>
      </trkpt>
      <trkpt lat="48.43851" lon="-4.54568">
        <ele>89.156</ele>
        <time>2010-08-16T13:18:09Z</time>
      </trkpt>
      <trkpt lat="48.43815" lon="-4.54564">
        <ele>88.155</ele>
        <time>2010-08-16T13:18:16Z</time>
      </trkpt>
      <trkpt lat="48.4381" lon="-4.54573">
        <ele>87.698</ele>
        <time>2010-08-16T13:18:17Z</time>
      </trkpt>
      <trkpt lat="48.43785" lon="-4.54648">
        <ele>84.222</ele>
        <time>2010-08-16T13:18:25Z</time>
      </trkpt>
      <trkpt lat="48.43774" lon="-4.54678">
        <ele>81.991</ele>
        <time>2010-08-16T13:18:28Z</time>
      </trkpt>
      <trkpt lat="48.43753" lon="-4.54716">
        <ele>78.729</ele>
        <time>2010-08-16T13:18:32Z</time>
      </trkpt>
      <trkpt lat="48.4374" lon="-4.54732">
        <ele>78.93</ele>
        <time>2010-08-16T13:18:34Z</time>
      </trkpt>
      <trkpt lat="48.43732" lon="-4.54764">
        <ele>79.453</ele>
        <time>2010-08-16T13:18:38Z</time>
      </trkpt>
      <trkpt lat="48.43733" lon="-4.5478">
        <ele>80.78</ele>
        <time>2010-08-16T13:18:40Z</time>
      </trkpt>
      <trkpt lat="48.43766" lon="-4.54899">
        <ele>82.589</ele>
        <time>2010-08-16T13:18:56Z</time>
      </trkpt>
      <trkpt lat="48.43771" lon="-4.55012">
        <ele>84.357</ele>
        <time>2010-08-16T13:19:11Z</time>
      </trkpt>
      <trkpt lat="48.43749" lon="-4.55158">
        <ele>86.684</ele>
        <time>2010-08-16T13:19:32Z</time>
      </trkpt>
      <trkpt lat="48.43716" lon="-4.55335">
        <ele>86.982</ele>
        <time>2010-08-16T13:19:57Z</time>
      </trkpt>
      <trkpt lat="48.43687" lon="-4.55475">
        <ele>87.834</ele>
        <time>2010-08-16T13:20:16Z</time>
      </trkpt>
      <trkpt lat="48.43648" lon="-4.55577">
        <ele>89.153</ele>
        <time>2010-08-16T13:20:31Z</time>
      </trkpt>
      <trkpt lat="48.43573" lon="-4.55725">
        <ele>89.641</ele>
        <time>2010-08-16T13:20:53Z</time>
      </trkpt>
      <trkpt lat="48.43502" lon="-4.55847">
        <ele>90.458</ele>
        <time>2010-08-16T13:21:12Z</time>
      </trkpt>
      <trkpt lat="48.43483" lon="-4.55871">
        <ele>90.955</ele>
        <time>2010-08-16T13:21:17Z</time>
      </trkpt>
      <trkpt lat="48.43389" lon="-4.55946">
        <ele>92.161</ele>
        <time>2010-08-16T13:21:38Z</time>
      </trkpt>
      <trkpt lat="48.43335" lon="-4.55979">
        <ele>92.773</ele>
        <time>2010-08-16T13:21:49Z</time>
      </trkpt>
      <trkpt lat="48.43319" lon="-4.55988">
        <ele>93.069</ele>
        <time>2010-08-16T13:21:54Z</time>
      </trkpt>
      <trkpt lat="48.43295" lon="-4.56">
        <ele>92.99</ele>
        <time>2010-08-16T13:21:59Z</time>
      </trkpt>
      <trkpt lat="48.43293" lon="-4.55988">
        <ele>92.723</ele>
        <time>2010-08-16T13:22:02Z</time>
      </trkpt>
      <trkpt lat="48.43157" lon="-4.55955">
        <ele>91.145</ele>
        <time>2010-08-16T13:22:20Z</time>
      </trkpt>
      <trkpt lat="48.43046" lon="-4.55982">
        <ele>90.036</ele>
        <time>2010-08-16T13:22:35Z</time>
      </trkpt>
      <trkpt lat="48.42996" lon="-4.56016">
        <ele>90.782</ele>
        <time>2010-08-16T13:22:43Z</time>
      </trkpt>
      <trkpt lat="48.42975" lon="-4.56027">
        <ele>91.011</ele>
        <time>2010-08-16T13:22:47Z</time>
      </trkpt>
      <trkpt lat="48.42958" lon="-4.56052">
        <ele>91.181</ele>
        <time>2010-08-16T13:22:51Z</time>
      </trkpt>
      <trkpt lat="48.42914" lon="-4.56172">
        <ele>92.126</ele>
        <time>2010-08-16T13:23:06Z</time>
      </trkpt>
      <trkpt lat="48.42911" lon="-4.56182">
        <ele>92.198</ele>
        <time>2010-08-16T13:23:08Z</time>
      </trkpt>
      <trkpt lat="48.42899" lon="-4.56195">
        <ele>92.762</ele>
        <time>2010-08-16T13:23:13Z</time>
      </trkpt>
      <trkpt lat="48.42898" lon="-4.5619">
        <ele>92.716</ele>
        <time>2010-08-16T13:23:15Z</time>
      </trkpt>
      <trkpt lat="48.42813" lon="-4.56145">
        <ele>91.758</ele>
        <time>2010-08-16T13:23:30Z</time>
      </trkpt>
      <trkpt lat="48.42726" lon="-4.56111">
        <ele>91.193</ele>
        <time>2010-08-16T13:23:45Z</time>
      </trkpt>
      <trkpt lat="48.42609" lon="-4.56075">
        <ele>92.446</ele>
        <time>2010-08-16T13:24:04Z</time>
      </trkpt>
      <trkpt lat="48.42529" lon="-4.5606">
        <ele>92.593</ele>
        <time>2010-08-16T13:24:20Z</time>
      </trkpt>
      <trkpt lat="48.42519" lon="-4.56059">
        <ele>92.524</ele>
        <time>2010-08-16T13:24:24Z</time>
      </trkpt>
      <trkpt lat="48.42512" lon="-4.56057">
        <ele>91.727</ele>
        <time>2010-08-16T13:24:33Z</time>
      </trkpt>
      <trkpt lat="48.42458" lon="-4.56049">
        <ele>91.249</ele>
        <time>2010-08-16T13:24:40Z</time>
      </trkpt>
      <trkpt lat="48.42434" lon="-4.56077">
        <ele>89.303</ele>
        <time>2010-08-16T13:24:45Z</time>
      </trkpt>
      <trkpt lat="48.42389" lon="-4.562">
        <ele>86.692</ele>
        <time>2010-08-16T13:24:59Z</time>
      </trkpt>
      <trkpt lat="48.42361" lon="-4.56274">
        <ele>85.711</ele>
        <time>2010-08-16T13:25:07Z</time>
      </trkpt>
      <trkpt lat="48.4234" lon="-4.563">
        <ele>86.2</ele>
        <time>2010-08-16T13:25:13Z</time>
      </trkpt>
      <trkpt lat="48.4234" lon="-4.56289">
        <ele>86.301</ele>
        <time>2010-08-16T13:25:15Z</time>
      </trkpt>
      <trkpt lat="48.42269" lon="-4.56188">
        <ele>86.593</ele>
        <time>2010-08-16T13:25:31Z</time>
      </trkpt>
      <trkpt lat="48.42188" lon="-4.56119">
        <ele>86.346</ele>
        <time>2010-08-16T13:25:46Z</time>
      </trkpt>
      <trkpt lat="48.42161" lon="-4.56095">
        <ele>87.703</ele>
        <time>2010-08-16T13:25:51Z</time>
      </trkpt>
      <trkpt lat="48.4214" lon="-4.56049">
        <ele>88.088</ele>
        <time>2010-08-16T13:25:57Z</time>
      </trkpt>
      <trkpt lat="48.42117" lon="-4.55954">
        <ele>89.432</ele>
        <time>2010-08-16T13:26:08Z</time>
      </trkpt>
      <trkpt lat="48.42106" lon="-4.55876">
        <ele>90.478</ele>
        <time>2010-08-16T13:26:20Z</time>
      </trkpt>
      <trkpt lat="48.42105" lon="-4.55868">
        <ele>89.856</ele>
        <time>2010-08-16T13:26:40Z</time>
      </trkpt>
      <trkpt lat="48.42096" lon="-4.55854">
        <ele>88.736</ele>
        <time>2010-08-16T13:26:44Z</time>
      </trkpt>
      <trkpt lat="48.42066" lon="-4.55867">
        <ele>87.745</ele>
        <time>2010-08-16T13:26:51Z</time>
      </trkpt>
      <trkpt lat="48.41988" lon="-4.55898">
        <ele>86.932</ele>
        <time>2010-08-16T13:27:05Z</time>
      </trkpt>
      <trkpt lat="48.4193" lon="-4.55918">
        <ele>84.531</ele>
        <time>2010-08-16T13:27:12Z</time>
      </trkpt>
      <trkpt lat="48.4188" lon="-4.55979">
        <ele>80.737</ele>
        <time>2010-08-16T13:27:19Z</time>
      </trkpt>
      <trkpt lat="48.41873" lon="-4.55972">
        <ele>80.695</ele>
        <time>2010-08-16T13:27:20Z</time>
      </trkpt>
      <trkpt lat="48.41859" lon="-4.55961">
        <ele>80.044</ele>
        <time>2010-08-16T13:27:22Z</time>
      </trkpt>
      <trkpt lat="48.41813" lon="-4.55936">
        <ele>75.324</ele>
        <time>2010-08-16T13:27:27Z</time>
      </trkpt>
      <trkpt lat="48.41789" lon="-4.55933">
        <ele>71.489</ele>
        <time>2010-08-16T13:27:29Z</time>
      </trkpt>
      <trkpt lat="48.41782" lon="-4.55933">
        <ele>71.255</ele>
        <time>2010-08-16T13:27:30Z</time>
      </trkpt>
      <trkpt lat="48.41782" lon="-4.55933">
        <ele>69.612</ele>
        <time>2010-08-16T13:27:32Z</time>
      </trkpt>
      <trkpt lat="48.41675" lon="-4.55924">
        <ele>68.967</ele>
        <time>2010-08-16T13:27:39Z</time>
      </trkpt>
      <trkpt lat="48.416" lon="-4.55952">
        <ele>70.6</ele>
        <time>2010-08-16T13:27:47Z</time>
      </trkpt>
      <trkpt lat="48.41528" lon="-4.55975">
        <ele>72.762</ele>
        <time>2010-08-16T13:27:56Z</time>
      </trkpt>
      <trkpt lat="48.41508" lon="-4.5598">
        <ele>74.161</ele>
        <time>2010-08-16T13:27:59Z</time>
      </trkpt>
      <trkpt lat="48.41445" lon="-4.55999">
        <ele>77.344</ele>
        <time>2010-08-16T13:28:10Z</time>
      </trkpt>
      <trkpt lat="48.41382" lon="-4.56027">
        <ele>80.47</ele>
        <time>2010-08-16T13:28:23Z</time>
      </trkpt>
      <trkpt lat="48.41303" lon="-4.56062">
        <ele>83.073</ele>
        <time>2010-08-16T13:28:43Z</time>
      </trkpt>
      <trkpt lat="48.4124" lon="-4.56068">
        <ele>81.763</ele>
        <time>2010-08-16T13:28:59Z</time>
      </trkpt>
      <trkpt lat="48.41216" lon="-4.56055">
        <ele>80.559</ele>
        <time>2010-08-16T13:29:04Z</time>
      </trkpt>
      <trkpt lat="48.41177" lon="-4.56059">
        <ele>77.893</ele>
        <time>2010-08-16T13:29:10Z</time>
      </trkpt>
      <trkpt lat="48.41164" lon="-4.56066">
        <ele>76.918</ele>
        <time>2010-08-16T13:29:12Z</time>
      </trkpt>
      <trkpt lat="48.41123" lon="-4.56069">
        <ele>74.11</ele>
        <time>2010-08-16T13:29:17Z</time>
      </trkpt>
      <trkpt lat="48.41078" lon="-4.56083">
        <ele>70.519</ele>
        <time>2010-08-16T13:29:22Z</time>
      </trkpt>
      <trkpt lat="48.4107" lon="-4.56091">
        <ele>70.606</ele>
        <time>2010-08-16T13:29:23Z</time>
      </trkpt>
      <trkpt lat="48.41019" lon="-4.56135">
        <ele>67.602</ele>
        <time>2010-08-16T13:29:29Z</time>
      </trkpt>
      <trkpt lat="48.40956" lon="-4.56188">
        <ele>64.594</ele>
        <time>2010-08-16T13:29:36Z</time>
      </trkpt>
      <trkpt lat="48.40837" lon="-4.56297">
        <ele>62.948</ele>
        <time>2010-08-16T13:29:51Z</time>
      </trkpt>
      <trkpt lat="48.4068" lon="-4.56441">
        <ele>64.884</ele>
        <time>2010-08-16T13:30:13Z</time>
      </trkpt>
      <trkpt lat="48.40556" lon="-4.56571">
        <ele>66.474</ele>
        <time>2010-08-16T13:30:34Z</time>
      </trkpt>
      <trkpt lat="48.40534" lon="-4.56606">
        <ele>65.461</ele>
        <time>2010-08-16T13:30:39Z</time>
      </trkpt>
      <trkpt lat="48.40471" lon="-4.56659">
        <ele>62.092</ele>
        <time>2010-08-16T13:30:49Z</time>
      </trkpt>
      <trkpt lat="48.40448" lon="-4.56674">
        <ele>60.763</ele>
        <time>2010-08-16T13:30:52Z</time>
      </trkpt>
      <trkpt lat="48.40368" lon="-4.56718">
        <ele>57.412</ele>
        <time>2010-08-16T13:31:01Z</time>
      </trkpt>
      <trkpt lat="48.40276" lon="-4.56798">
        <ele>54.214</ele>
        <time>2010-08-16T13:31:12Z</time>
      </trkpt>
      <trkpt lat="48.40214" lon="-4.56865">
        <ele>51.151</ele>
        <time>2010-08-16T13:31:20Z</time>
      </trkpt>
      <trkpt lat="48.40106" lon="-4.56969">
        <ele>48.078</ele>
        <time>2010-08-16T13:31:34Z</time>
      </trkpt>
      <trkpt lat="48.40019" lon="-4.57038">
        <ele>47.054</ele>
        <time>2010-08-16T13:31:48Z</time>
      </trkpt>
      <trkpt lat="48.39903" lon="-4.57107">
        <ele>45.396</ele>
        <time>2010-08-16T13:32:07Z</time>
      </trkpt>
      <trkpt lat="48.39867" lon="-4.57127">
        <ele>44.866</ele>
        <time>2010-08-16T13:32:13Z</time>
      </trkpt>
      <trkpt lat="48.39775" lon="-4.5717">
        <ele>43.238</ele>
        <time>2010-08-16T13:32:28Z</time>
      </trkpt>
      <trkpt lat="48.39654" lon="-4.57208">
        <ele>43.963</ele>
        <time>2010-08-16T13:32:48Z</time>
      </trkpt>
      <trkpt lat="48.39531" lon="-4.57227">
        <ele>44.211</ele>
        <time>2010-08-16T13:33:08Z</time>
      </trkpt>
      <trkpt lat="48.39424" lon="-4.57288">
        <ele>44.853</ele>
        <time>2010-08-16T13:33:26Z</time>
      </trkpt>
      <trkpt lat="48.39328" lon="-4.57332">
        <ele>45.616</ele>
        <time>2010-08-16T13:33:42Z</time>
      </trkpt>
      <trkpt lat="48.39203" lon="-4.57358">
        <ele>45.886</ele>
        <time>2010-08-16T13:34:02Z</time>
      </trkpt>
      <trkpt lat="48.3907" lon="-4.57385">
        <ele>47.829</ele>
        <time>2010-08-16T13:34:23Z</time>
      </trkpt>
      <trkpt lat="48.38926" lon="-4.57426">
        <ele>48.831</ele>
        <time>2010-08-16T13:34:46Z</time>
      </trkpt>
      <trkpt lat="48.38797" lon="-4.57477">
        <ele>50.187</ele>
        <time>2010-08-16T13:35:07Z</time>
      </trkpt>
      <trkpt lat="48.3867" lon="-4.57527">
        <ele>51.944</ele>
        <time>2010-08-16T13:35:28Z</time>
      </trkpt>
      <trkpt lat="48.38504" lon="-4.57591">
        <ele>54.72</ele>
        <time>2010-08-16T13:35:55Z</time>
      </trkpt>
      <trkpt lat="48.3845" lon="-4.57608">
        <ele>55.873</ele>
        <time>2010-08-16T13:36:04Z</time>
      </trkpt>
      <trkpt lat="48.3835" lon="-4.57609">
        <ele>57.588</ele>
        <time>2010-08-16T13:36:20Z</time>
      </trkpt>
      <trkpt lat="48.38248" lon="-4.57592">
        <ele>59.728</ele>
        <time>2010-08-16T13:36:37Z</time>
      </trkpt>
      <trkpt lat="48.38194" lon="-4.57589">
        <ele>62.876</ele>
        <time>2010-08-16T13:36:49Z</time>
      </trkpt>
      <trkpt lat="48.38148" lon="-4.57595">
        <ele>66.23</ele>
        <time>2010-08-16T13:37:03Z</time>
      </trkpt>
      <trkpt lat="48.38111" lon="-4.57607">
        <ele>69.289</ele>
        <time>2010-08-16T13:37:16Z</time>
      </trkpt>
      <trkpt lat="48.38056" lon="-4.57629">
        <ele>72.391</ele>
        <time>2010-08-16T13:37:35Z</time>
      </trkpt>
      <trkpt lat="48.37982" lon="-4.57662">
        <ele>74.217</ele>
        <time>2010-08-16T13:37:58Z</time>
      </trkpt>
      <trkpt lat="48.37917" lon="-4.57703">
        <ele>74.306</ele>
        <time>2010-08-16T13:38:15Z</time>
      </trkpt>
      <trkpt lat="48.37845" lon="-4.57786">
        <ele>76.486</ele>
        <time>2010-08-16T13:38:35Z</time>
      </trkpt>
      <trkpt lat="48.37796" lon="-4.57843">
        <ele>79.521</ele>
        <time>2010-08-16T13:38:51Z</time>
      </trkpt>
      <trkpt lat="48.37757" lon="-4.57887">
        <ele>82.501</ele>
        <time>2010-08-16T13:39:05Z</time>
      </trkpt>
      <trkpt lat="48.37734" lon="-4.57914">
        <ele>85.325</ele>
        <time>2010-08-16T13:39:15Z</time>
      </trkpt>
      <trkpt lat="48.37718" lon="-4.57933">
        <ele>87.7</ele>
        <time>2010-08-16T13:39:27Z</time>
      </trkpt>
      <trkpt lat="48.37658" lon="-4.57973">
        <ele>90.267</ele>
        <time>2010-08-16T13:39:47Z</time>
      </trkpt>
      <trkpt lat="48.37604" lon="-4.57998">
        <ele>91.444</ele>
        <time>2010-08-16T13:40:05Z</time>
      </trkpt>
      <trkpt lat="48.37577" lon="-4.5801">
        <ele>91.545</ele>
        <time>2010-08-16T13:40:13Z</time>
      </trkpt>
      <trkpt lat="48.37558" lon="-4.58018">
        <ele>91.57</ele>
        <time>2010-08-16T13:40:18Z</time>
      </trkpt>
      <trkpt lat="48.37545" lon="-4.57994">
        <ele>92.116</ele>
        <time>2010-08-16T13:40:23Z</time>
      </trkpt>
      <trkpt lat="48.37504" lon="-4.57932">
        <ele>91.825</ele>
        <time>2010-08-16T13:40:37Z</time>
      </trkpt>
      <trkpt lat="48.37465" lon="-4.57888">
        <ele>91.361</ele>
        <time>2010-08-16T13:40:49Z</time>
      </trkpt>
      <trkpt lat="48.37464" lon="-4.57856">
        <ele>91.412</ele>
        <time>2010-08-16T13:40:53Z</time>
      </trkpt>
      <trkpt lat="48.37501" lon="-4.57728">
        <ele>91.9</ele>
        <time>2010-08-16T13:41:10Z</time>
      </trkpt>
      <trkpt lat="48.37538" lon="-4.57604">
        <ele>92.289</ele>
        <time>2010-08-16T13:41:27Z</time>
      </trkpt>
      <trkpt lat="48.37562" lon="-4.57505">
        <ele>91.202</ele>
        <time>2010-08-16T13:41:39Z</time>
      </trkpt>
      <trkpt lat="48.37549" lon="-4.57455">
        <ele>90.789</ele>
        <time>2010-08-16T13:41:46Z</time>
      </trkpt>
      <trkpt lat="48.37453" lon="-4.57402">
        <ele>87.375</ele>
        <time>2010-08-16T13:42:03Z</time>
      </trkpt>
      <trkpt lat="48.3743" lon="-4.5739">
        <ele>85.325</ele>
        <time>2010-08-16T13:42:07Z</time>
      </trkpt>
      <trkpt lat="48.37404" lon="-4.57374">
        <ele>82.749</ele>
        <time>2010-08-16T13:42:12Z</time>
      </trkpt>
      <trkpt lat="48.37383" lon="-4.57364">
        <ele>80.477</ele>
        <time>2010-08-16T13:42:17Z</time>
      </trkpt>
      <trkpt lat="48.37382" lon="-4.57312">
        <ele>79.577</ele>
        <time>2010-08-16T13:42:20Z</time>
      </trkpt>
      <trkpt lat="48.37393" lon="-4.57149">
        <ele>81.068</ele>
        <time>2010-08-16T13:42:37Z</time>
      </trkpt>
      <trkpt lat="48.37398" lon="-4.57069">
        <ele>84.287</ele>
        <time>2010-08-16T13:42:47Z</time>
      </trkpt>
      <trkpt lat="48.37404" lon="-4.56947">
        <ele>85.043</ele>
        <time>2010-08-16T13:43:02Z</time>
      </trkpt>
      <trkpt lat="48.37401" lon="-4.56846">
        <ele>85.597</ele>
        <time>2010-08-16T13:43:17Z</time>
      </trkpt>
      <trkpt lat="48.37404" lon="-4.5681">
        <ele>85.826</ele>
        <time>2010-08-16T13:43:25Z</time>
      </trkpt>
      <trkpt lat="48.37417" lon="-4.56695">
        <ele>86.287</ele>
        <time>2010-08-16T13:43:39Z</time>
      </trkpt>
      <trkpt lat="48.37443" lon="-4.56573">
        <ele>88.165</ele>
        <time>2010-08-16T13:43:55Z</time>
      </trkpt>
      <trkpt lat="48.37458" lon="-4.56474">
        <ele>87.984</ele>
        <time>2010-08-16T13:44:08Z</time>
      </trkpt>
      <trkpt lat="48.3746" lon="-4.5646">
        <ele>87.641</ele>
        <time>2010-08-16T13:44:10Z</time>
      </trkpt>
      <trkpt lat="48.37484" lon="-4.56454">
        <ele>87.692</ele>
        <time>2010-08-16T13:44:15Z</time>
      </trkpt>
      <trkpt lat="48.37493" lon="-4.56457">
        <ele>87.835</ele>
        <time>2010-08-16T13:44:17Z</time>
      </trkpt>
      <trkpt lat="48.37514" lon="-4.56461">
        <ele>89.056</ele>
        <time>2010-08-16T13:44:21Z</time>
      </trkpt>
      <trkpt lat="48.37556" lon="-4.56433">
        <ele>89.017</ele>
        <time>2010-08-16T13:44:29Z</time>
      </trkpt>
      <trkpt lat="48.37608" lon="-4.56301">
        <ele>86.812</ele>
        <time>2010-08-16T13:44:45Z</time>
      </trkpt>
      <trkpt lat="48.37618" lon="-4.56274">
        <ele>86.446</ele>
        <time>2010-08-16T13:44:48Z</time>
      </trkpt>
      <trkpt lat="48.37643" lon="-4.56198">
        <ele>85.074</ele>
        <time>2010-08-16T13:44:56Z</time>
      </trkpt>
      <trkpt lat="48.37673" lon="-4.56054">
        <ele>81.697</ele>
        <time>2010-08-16T13:45:09Z</time>
      </trkpt>
      <trkpt lat="48.37679" lon="-4.56023">
        <ele>80.281</ele>
        <time>2010-08-16T13:45:12Z</time>
      </trkpt>
      <trkpt lat="48.37688" lon="-4.55962">
        <ele>80.685</ele>
        <time>2010-08-16T13:45:17Z</time>
      </trkpt>
      <trkpt lat="48.37697" lon="-4.5587">
        <ele>84.054</ele>
        <time>2010-08-16T13:45:27Z</time>
      </trkpt>
      <trkpt lat="48.37697" lon="-4.55854">
        <ele>84.805</ele>
        <time>2010-08-16T13:45:29Z</time>
      </trkpt>
      <trkpt lat="48.37684" lon="-4.5578">
        <ele>85.917</ele>
        <time>2010-08-16T13:45:38Z</time>
      </trkpt>
      <trkpt lat="48.37679" lon="-4.55751">
        <ele>85.923</ele>
        <time>2010-08-16T13:45:41Z</time>
      </trkpt>
      <trkpt lat="48.37709" lon="-4.55688">
        <ele>85.513</ele>
        <time>2010-08-16T13:45:51Z</time>
      </trkpt>
      <trkpt lat="48.37714" lon="-4.55685">
        <ele>85.543</ele>
        <time>2010-08-16T13:45:52Z</time>
      </trkpt>
      <trkpt lat="48.3773" lon="-4.55675">
        <ele>85.778</ele>
        <time>2010-08-16T13:45:55Z</time>
      </trkpt>
      <trkpt lat="48.37741" lon="-4.55639">
        <ele>85.313</ele>
        <time>2010-08-16T13:46:01Z</time>
      </trkpt>
      <trkpt lat="48.37777" lon="-4.5547">
        <ele>84.414</ele>
        <time>2010-08-16T13:46:20Z</time>
      </trkpt>
      <trkpt lat="48.37783" lon="-4.55454">
        <ele>84.34</ele>
        <time>2010-08-16T13:46:22Z</time>
      </trkpt>
      <trkpt lat="48.37832" lon="-4.55312">
        <ele>82.259</ele>
        <time>2010-08-16T13:46:38Z</time>
      </trkpt>
      <trkpt lat="48.37876" lon="-4.55194">
        <ele>81.187</ele>
        <time>2010-08-16T13:46:52Z</time>
      </trkpt>
      <trkpt lat="48.37918" lon="-4.55119">
        <ele>78.065</ele>
        <time>2010-08-16T13:47:01Z</time>
      </trkpt>
      <trkpt lat="48.37927" lon="-4.55102">
        <ele>77.447</ele>
        <time>2010-08-16T13:47:03Z</time>
      </trkpt>
      <trkpt lat="48.38006" lon="-4.54942">
        <ele>77.625</ele>
        <time>2010-08-16T13:47:21Z</time>
      </trkpt>
      <trkpt lat="48.38049" lon="-4.54849">
        <ele>79.183</ele>
        <time>2010-08-16T13:47:34Z</time>
      </trkpt>
      <trkpt lat="48.38069" lon="-4.5481">
        <ele>81.051</ele>
        <time>2010-08-16T13:47:40Z</time>
      </trkpt>
      <trkpt lat="48.3806" lon="-4.54775">
        <ele>81.599</ele>
        <time>2010-08-16T13:47:47Z</time>
      </trkpt>
      <trkpt lat="48.37998" lon="-4.54726">
        <ele>84.092</ele>
        <time>2010-08-16T13:48:02Z</time>
      </trkpt>
      <trkpt lat="48.37961" lon="-4.54701">
        <ele>86.072</ele>
        <time>2010-08-16T13:48:13Z</time>
      </trkpt>
      <trkpt lat="48.37935" lon="-4.54676">
        <ele>86.953</ele>
        <time>2010-08-16T13:48:22Z</time>
      </trkpt>
      <trkpt lat="48.37881" lon="-4.54604">
        <ele>87.909</ele>
        <time>2010-08-16T13:48:41Z</time>
      </trkpt>
      <trkpt lat="48.37836" lon="-4.54564">
        <ele>87.345</ele>
        <time>2010-08-16T13:48:55Z</time>
      </trkpt>
      <trkpt lat="48.37834" lon="-4.54544">
        <ele>86.574</ele>
        <time>2010-08-16T13:48:59Z</time>
      </trkpt>
      <trkpt lat="48.378" lon="-4.54534">
        <ele>86.434</ele>
        <time>2010-08-16T13:49:04Z</time>
      </trkpt>
      <trkpt lat="48.37795" lon="-4.54457">
        <ele>88.69</ele>
        <time>2010-08-16T13:49:13Z</time>
      </trkpt>
      <trkpt lat="48.37818" lon="-4.54445">
        <ele>88.453</ele>
        <time>2010-08-16T13:49:18Z</time>
      </trkpt>
      <trkpt lat="48.37829" lon="-4.54444">
        <ele>88.268</ele>
        <time>2010-08-16T13:49:20Z</time>
      </trkpt>
      <trkpt lat="48.37885" lon="-4.54384">
        <ele>89.984</ele>
        <time>2010-08-16T13:49:32Z</time>
      </trkpt>
      <trkpt lat="48.37903" lon="-4.54375">
        <ele>91.559</ele>
        <time>2010-08-16T13:49:44Z</time>
      </trkpt>
      <trkpt lat="48.3793" lon="-4.54341">
        <ele>90.941</ele>
        <time>2010-08-16T13:50:10Z</time>
      </trkpt>
      <trkpt lat="48.37937" lon="-4.54332">
        <ele>90.826</ele>
        <time>2010-08-16T13:50:12Z</time>
      </trkpt>
      <trkpt lat="48.37998" lon="-4.54255">
        <ele>91.483</ele>
        <time>2010-08-16T13:50:26Z</time>
      </trkpt>
      <trkpt lat="48.38099" lon="-4.54127">
        <ele>92.467</ele>
        <time>2010-08-16T13:50:47Z</time>
      </trkpt>
      <trkpt lat="48.38175" lon="-4.54031">
        <ele>93.641</ele>
        <time>2010-08-16T13:51:04Z</time>
      </trkpt>
      <trkpt lat="48.38186" lon="-4.54018">
        <ele>93.425</ele>
        <time>2010-08-16T13:51:07Z</time>
      </trkpt>
      <trkpt lat="48.38197" lon="-4.54004">
        <ele>94.241</ele>
        <time>2010-08-16T13:51:11Z</time>
      </trkpt>
      <trkpt lat="48.38209" lon="-4.53987">
        <ele>95.239</ele>
        <time>2010-08-16T13:51:22Z</time>
      </trkpt>
      <trkpt lat="48.38209" lon="-4.53987">
        <ele>95.188</ele>
        <time>2010-08-16T13:51:24Z</time>
      </trkpt>
      <trkpt lat="48.38215" lon="-4.53977">
        <ele>95.079</ele>
        <time>2010-08-16T13:51:28Z</time>
      </trkpt>
      <trkpt lat="48.38251" lon="-4.53917">
        <ele>94.197</ele>
        <time>2010-08-16T13:51:41Z</time>
      </trkpt>
      <trkpt lat="48.38283" lon="-4.53863">
        <ele>93.897</ele>
        <time>2010-08-16T13:51:50Z</time>
      </trkpt>
      <trkpt lat="48.38293" lon="-4.53818">
        <ele>94.186</ele>
        <time>2010-08-16T13:51:56Z</time>
      </trkpt>
      <trkpt lat="48.38293" lon="-4.53784">
        <ele>94.783</ele>
        <time>2010-08-16T13:52:00Z</time>
      </trkpt>
      <trkpt lat="48.3831" lon="-4.53662">
        <ele>95.593</ele>
        <time>2010-08-16T13:52:17Z</time>
      </trkpt>
      <trkpt lat="48.38311" lon="-4.53655">
        <ele>95.936</ele>
        <time>2010-08-16T13:52:28Z</time>
      </trkpt>
      <trkpt lat="48.38314" lon="-4.53637">
        <ele>95.41</ele>
        <time>2010-08-16T13:53:04Z</time>
      </trkpt>
      <trkpt lat="48.38315" lon="-4.53625">
        <ele>94.864</ele>
        <time>2010-08-16T13:53:06Z</time>
      </trkpt>
      <trkpt lat="48.38318" lon="-4.53604">
        <ele>94.52</ele>
        <time>2010-08-16T13:53:09Z</time>
      </trkpt>
      <trkpt lat="48.38323" lon="-4.53455">
        <ele>95.04</ele>
        <time>2010-08-16T13:53:25Z</time>
      </trkpt>
      <trkpt lat="48.38323" lon="-4.53266">
        <ele>95.124</ele>
        <time>2010-08-16T13:53:46Z</time>
      </trkpt>
      <trkpt lat="48.38323" lon="-4.53148">
        <ele>94.539</ele>
        <time>2010-08-16T13:53:59Z</time>
      </trkpt>
      <trkpt lat="48.38304" lon="-4.53115">
        <ele>94.343</ele>
        <time>2010-08-16T13:54:04Z</time>
      </trkpt>
      <trkpt lat="48.38302" lon="-4.53079">
        <ele>96.105</ele>
        <time>2010-08-16T13:54:09Z</time>
      </trkpt>
      <trkpt lat="48.38305" lon="-4.52941">
        <ele>97.567</ele>
        <time>2010-08-16T13:54:28Z</time>
      </trkpt>
      <trkpt lat="48.38309" lon="-4.52781">
        <ele>96.866</ele>
        <time>2010-08-16T13:54:49Z</time>
      </trkpt>
      <trkpt lat="48.3831" lon="-4.52769">
        <ele>96.61</ele>
        <time>2010-08-16T13:54:51Z</time>
      </trkpt>
      <trkpt lat="48.3832" lon="-4.52647">
        <ele>94.024</ele>
        <time>2010-08-16T13:55:03Z</time>
      </trkpt>
      <trkpt lat="48.38323" lon="-4.52623">
        <ele>93.6</ele>
        <time>2010-08-16T13:55:05Z</time>
      </trkpt>
      <trkpt lat="48.38332" lon="-4.52525">
        <ele>90.525</ele>
        <time>2010-08-16T13:55:13Z</time>
      </trkpt>
      <trkpt lat="48.38336" lon="-4.52488">
        <ele>89.261</ele>
        <time>2010-08-16T13:55:16Z</time>
      </trkpt>
      <trkpt lat="48.38357" lon="-4.524">
        <ele>87.191</ele>
        <time>2010-08-16T13:55:24Z</time>
      </trkpt>
      <trkpt lat="48.38335" lon="-4.52369">
        <ele>86.033</ele>
        <time>2010-08-16T13:55:30Z</time>
      </trkpt>
      <trkpt lat="48.38333" lon="-4.52337">
        <ele>86.727</ele>
        <time>2010-08-16T13:55:35Z</time>
      </trkpt>
      <trkpt lat="48.38336" lon="-4.52325">
        <ele>87.636</ele>
        <time>2010-08-16T13:55:37Z</time>
      </trkpt>
      <trkpt lat="48.38353" lon="-4.52241">
        <ele>88.992</ele>
        <time>2010-08-16T13:55:50Z</time>
      </trkpt>
      <trkpt lat="48.38357" lon="-4.5222">
        <ele>90.227</ele>
        <time>2010-08-16T13:55:53Z</time>
      </trkpt>
      <trkpt lat="48.38379" lon="-4.52106">
        <ele>89.984</ele>
        <time>2010-08-16T13:56:09Z</time>
      </trkpt>
      <trkpt lat="48.38398" lon="-4.52008">
        <ele>89.972</ele>
        <time>2010-08-16T13:56:22Z</time>
      </trkpt>
      <trkpt lat="48.38403" lon="-4.51979">
        <ele>89.23</ele>
        <time>2010-08-16T13:56:26Z</time>
      </trkpt>
      <trkpt lat="48.3839" lon="-4.51971">
        <ele>88.181</ele>
        <time>2010-08-16T13:56:31Z</time>
      </trkpt>
      <trkpt lat="48.38333" lon="-4.51985">
        <ele>84.923</ele>
        <time>2010-08-16T13:56:41Z</time>
      </trkpt>
      <trkpt lat="48.38307" lon="-4.51992">
        <ele>82.782</ele>
        <time>2010-08-16T13:56:48Z</time>
      </trkpt>
      <trkpt lat="48.38305" lon="-4.51937">
        <ele>82.735</ele>
        <time>2010-08-16T13:56:52Z</time>
      </trkpt>
      <trkpt lat="48.38271" lon="-4.5193">
        <ele>81.815</ele>
        <time>2010-08-16T13:56:58Z</time>
      </trkpt>
      <trkpt lat="48.3824" lon="-4.51938">
        <ele>80.971</ele>
        <time>2010-08-16T13:57:04Z</time>
      </trkpt>
      <trkpt lat="48.38225" lon="-4.51942">
        <ele>79.998</ele>
        <time>2010-08-16T13:57:07Z</time>
      </trkpt>
      <trkpt lat="48.38216" lon="-4.51945">
        <ele>79.309</ele>
        <time>2010-08-16T13:57:09Z</time>
      </trkpt>
      <trkpt lat="48.38208" lon="-4.51929">
        <ele>77.84</ele>
        <time>2010-08-16T13:57:12Z</time>
      </trkpt>
      <trkpt lat="48.38206" lon="-4.51921">
        <ele>77.087</ele>
        <time>2010-08-16T13:57:13Z</time>
      </trkpt>
      <trkpt lat="48.38194" lon="-4.51868">
        <ele>73.808</ele>
        <time>2010-08-16T13:57:18Z</time>
      </trkpt>
      <trkpt lat="48.38178" lon="-4.51802">
        <ele>70.751</ele>
        <time>2010-08-16T13:57:24Z</time>
      </trkpt>
      <trkpt lat="48.38162" lon="-4.5173">
        <ele>67.481</ele>
        <time>2010-08-16T13:57:31Z</time>
      </trkpt>
      <trkpt lat="48.38145" lon="-4.51612">
        <ele>67.204</ele>
        <time>2010-08-16T13:57:44Z</time>
      </trkpt>
      <trkpt lat="48.38142" lon="-4.51592">
        <ele>66.426</ele>
        <time>2010-08-16T13:57:46Z</time>
      </trkpt>
      <trkpt lat="48.38134" lon="-4.5141">
        <ele>62.955</ele>
        <time>2010-08-16T13:58:02Z</time>
      </trkpt>
      <trkpt lat="48.38134" lon="-4.51396">
        <ele>62.737</ele>
        <time>2010-08-16T13:58:03Z</time>
      </trkpt>
      <trkpt lat="48.38134" lon="-4.51342">
        <ele>59.899</ele>
        <time>2010-08-16T13:58:07Z</time>
      </trkpt>
      <trkpt lat="48.38139" lon="-4.51213">
        <ele>59.151</ele>
        <time>2010-08-16T13:58:17Z</time>
      </trkpt>
      <trkpt lat="48.38139" lon="-4.51121">
        <ele>62.155</ele>
        <time>2010-08-16T13:58:25Z</time>
      </trkpt>
      <trkpt lat="48.38137" lon="-4.51101">
        <ele>62.61</ele>
        <time>2010-08-16T13:58:27Z</time>
      </trkpt>
      <trkpt lat="48.38134" lon="-4.51079">
        <ele>62.858</ele>
        <time>2010-08-16T13:58:31Z</time>
      </trkpt>
      <trkpt lat="48.38125" lon="-4.51028">
        <ele>63.102</ele>
        <time>2010-08-16T13:58:36Z</time>
      </trkpt>
      <trkpt lat="48.38122" lon="-4.5099">
        <ele>62.489</ele>
        <time>2010-08-16T13:58:41Z</time>
      </trkpt>
      <trkpt lat="48.38128" lon="-4.5096">
        <ele>61.673</ele>
        <time>2010-08-16T13:58:45Z</time>
      </trkpt>
      <trkpt lat="48.38132" lon="-4.50947">
        <ele>61.527</ele>
        <time>2010-08-16T13:58:47Z</time>
      </trkpt>
      <trkpt lat="48.38165" lon="-4.509">
        <ele>61.854</ele>
        <time>2010-08-16T13:58:55Z</time>
      </trkpt>
      <trkpt lat="48.38221" lon="-4.50868">
        <ele>61.857</ele>
        <time>2010-08-16T13:59:07Z</time>
      </trkpt>
      <trkpt lat="48.38277" lon="-4.50862">
        <ele>60.916</ele>
        <time>2010-08-16T13:59:21Z</time>
      </trkpt>
    </trkseg>
  </trk>
</gpx>